createdAt,value
2022-10-20T00:01:28.241Z,5.42
2022-10-20T00:03:56.225Z,5.46
2022-10-20T00:06:32.454Z,5.41
2022-10-20T00:09:02.648Z,5.28
2022-10-20T00:11:43.172Z,5.30
2022-10-20T00:14:10.414Z,5.29
2022-10-20T00:16:39.207Z,5.27
2022-10-20T00:19:06.539Z,5.16
2022-10-20T00:21:33.532Z,5.20
2022-10-20T00:24:02.336Z,5.18
2022-10-20T00:26:31.646Z,5.23
2022-10-20T00:28:58.794Z,5.13
2022-10-20T00:31:26.395Z,5.13
2022-10-20T00:33:53.639Z,5.23
2022-10-20T00:36:23.533Z,5.22
2022-10-20T00:38:51.611Z,5.12
2022-10-20T00:41:21.407Z,5.14
2022-10-20T00:43:59.416Z,5.14
2022-10-20T00:46:44.616Z,5.08
2022-10-20T00:49:25.996Z,5.11
2022-10-20T00:51:54.803Z,5.15
2022-10-20T00:54:26.911Z,5.16
2022-10-20T00:56:56.680Z,5.07
2022-10-20T00:59:33.074Z,5.05
2022-10-20T01:02:02.475Z,4.94
2022-10-20T01:04:31.988Z,4.87
2022-10-20T01:06:59.293Z,4.96
2022-10-20T01:09:26.778Z,4.96
2022-10-20T01:12:11.482Z,4.94
2022-10-20T01:15:13.429Z,4.89
2022-10-20T01:18:02.176Z,4.79
2022-10-20T01:21:05.073Z,4.77
2022-10-20T01:24:11.741Z,4.86
2022-10-20T01:27:09.393Z,4.67
2022-10-20T01:30:21.378Z,4.75
2022-10-20T01:33:05.300Z,4.70
2022-10-20T01:36:00.306Z,4.66
2022-10-20T01:38:39.225Z,4.61
2022-10-20T01:41:34.171Z,4.65
2022-10-20T01:44:10.749Z,4.64
2022-10-20T01:46:41.258Z,4.80
2022-10-20T01:49:09.587Z,4.77
2022-10-20T01:51:36.595Z,4.59
2022-10-20T01:54:03.752Z,4.49
2022-10-20T01:56:47.291Z,4.54
2022-10-20T01:59:39.116Z,4.51
2022-10-20T02:02:16.951Z,4.51
2022-10-20T02:05:24.632Z,4.46
2022-10-20T02:08:00.497Z,4.45
2022-10-20T02:10:36.492Z,4.53
2022-10-20T02:13:07.316Z,4.53
2022-10-20T02:15:39.504Z,4.52
2022-10-20T02:18:09.355Z,4.50
2022-10-20T02:20:36.325Z,4.51
2022-10-20T02:23:06.492Z,4.50
2022-10-20T02:25:34.701Z,4.51
2022-10-20T02:28:04.596Z,4.49
2022-10-20T02:30:32.221Z,4.33
2022-10-20T02:32:59.161Z,4.46
2022-10-20T02:35:33.344Z,4.45
2022-10-20T02:38:01.152Z,4.48
2022-10-20T02:40:28.540Z,4.60
2022-10-20T02:42:55.427Z,4.52
2022-10-20T02:45:22.461Z,4.38
2022-10-20T02:47:49.342Z,4.38
2022-10-20T02:50:17.170Z,4.38
2022-10-20T02:52:44.109Z,4.31
2022-10-20T02:55:11.142Z,4.37
2022-10-20T02:57:38.618Z,4.35
2022-10-20T03:00:07.800Z,4.31
2022-10-20T03:02:34.937Z,4.33
2022-10-20T03:05:01.968Z,4.33
2022-10-20T03:07:28.940Z,4.32
2022-10-20T03:09:55.883Z,4.28
2022-10-20T03:12:22.865Z,4.25
2022-10-20T03:14:49.863Z,4.23
2022-10-20T03:17:16.843Z,4.21
2022-10-20T03:19:43.873Z,4.20
2022-10-20T03:22:10.947Z,4.16
2022-10-20T03:24:37.911Z,4.18
2022-10-20T03:27:04.907Z,4.18
2022-10-20T03:29:31.930Z,4.11
2022-10-20T03:31:58.929Z,4.18
2022-10-20T03:34:25.938Z,4.23
2022-10-20T03:36:53.156Z,4.21
2022-10-20T03:39:20.240Z,4.28
2022-10-20T03:41:47.273Z,4.18
2022-10-20T03:44:14.301Z,3.99
2022-10-20T03:46:41.251Z,3.83
2022-10-20T03:49:08.227Z,3.91
2022-10-20T03:51:35.222Z,3.84
2022-10-20T03:54:02.132Z,3.90
2022-10-20T03:56:29.035Z,3.93
2022-10-20T03:58:56.001Z,3.76
2022-10-20T04:01:31.188Z,3.84
2022-10-20T04:03:58.476Z,3.82
2022-10-20T04:06:25.699Z,3.88
2022-10-20T04:08:52.664Z,3.68
2022-10-20T04:11:19.654Z,3.57
2022-10-20T04:13:46.673Z,3.63
2022-10-20T04:16:13.732Z,3.70
2022-10-20T04:18:40.740Z,3.56
2022-10-20T04:21:07.692Z,3.50
2022-10-20T04:23:34.654Z,3.62
2022-10-20T04:26:09.742Z,3.48
2022-10-20T04:28:36.854Z,3.49
2022-10-20T04:31:04.669Z,3.60
2022-10-20T04:33:31.818Z,3.59
2022-10-20T04:36:06.010Z,3.60
2022-10-20T04:38:34.676Z,3.60
2022-10-20T04:41:04.483Z,3.56
2022-10-20T04:43:34.664Z,3.65
2022-10-20T04:46:07.294Z,3.58
2022-10-20T04:48:37.204Z,3.44
2022-10-20T04:51:10.524Z,3.43
2022-10-20T04:53:37.908Z,3.38
2022-10-20T04:56:07.332Z,3.47
2022-10-20T04:58:35.374Z,3.41
2022-10-20T05:01:07.050Z,3.45
2022-10-20T05:03:35.156Z,3.26
2022-10-20T05:06:27.935Z,3.45
2022-10-20T05:08:58.983Z,3.26
2022-10-20T05:11:28.702Z,3.28
2022-10-20T05:13:56.250Z,3.35
2022-10-20T05:16:24.190Z,3.45
2022-10-20T05:18:54.355Z,3.56
2022-10-20T05:21:26.608Z,3.52
2022-10-20T05:24:04.075Z,3.55
2022-10-20T05:26:34.955Z,3.68
2022-10-20T05:29:08.142Z,3.62
2022-10-20T05:31:43.910Z,3.88
2022-10-20T05:34:12.052Z,3.81
2022-10-20T05:36:39.127Z,3.93
2022-10-20T05:39:06.398Z,4.01
2022-10-20T05:41:37.917Z,4.19
2022-10-20T05:44:09.014Z,4.31
2022-10-20T05:46:41.312Z,4.25
2022-10-20T05:49:14.310Z,4.36
2022-10-20T05:51:41.671Z,4.58
2022-10-20T05:54:12.354Z,4.42
2022-10-20T05:56:39.735Z,4.79
2022-10-20T05:59:07.000Z,5.03
2022-10-20T06:01:48.300Z,4.84
2022-10-20T06:04:24.795Z,4.95
2022-10-20T06:06:53.160Z,5.30
2022-10-20T06:09:21.039Z,5.37
2022-10-20T06:11:48.614Z,5.08
2022-10-20T06:14:15.949Z,5.13
2022-10-20T06:16:43.608Z,5.40
2022-10-20T06:19:10.992Z,5.23
2022-10-20T06:21:38.650Z,5.31
2022-10-20T06:24:06.995Z,5.30
2022-10-20T06:26:38.900Z,5.19
2022-10-20T06:29:10.997Z,5.44
2022-10-20T06:31:41.698Z,5.47
2022-10-20T06:34:13.394Z,5.54
2022-10-20T06:36:42.039Z,5.55
2022-10-20T06:39:14.373Z,6.09
2022-10-20T06:41:41.635Z,8.65
2022-10-20T06:44:08.659Z,10.31
2022-10-20T06:46:37.132Z,11.00
2022-10-20T06:49:07.092Z,11.18
2022-10-20T06:51:36.076Z,10.29
2022-10-20T06:54:03.862Z,10.76
2022-10-20T06:56:34.108Z,11.67
2022-10-20T06:59:02.202Z,12.59
2022-10-20T07:01:39.698Z,13.74
2022-10-20T07:04:11.388Z,14.96
2022-10-20T07:06:41.424Z,15.43
2022-10-20T07:09:14.051Z,15.89
2022-10-20T07:11:42.040Z,16.37
2022-10-20T07:14:12.713Z,17.05
2022-10-20T07:16:39.741Z,17.19
2022-10-20T07:19:06.719Z,17.72
2022-10-20T07:21:38.338Z,17.70
2022-10-20T07:24:09.254Z,17.84
2022-10-20T07:26:40.966Z,18.13
2022-10-20T07:29:08.846Z,17.75
2022-10-20T07:31:45.555Z,17.81
2022-10-20T07:34:30.988Z,18.29
2022-10-20T07:36:58.229Z,18.35
2022-10-20T07:39:26.187Z,18.41
2022-10-20T07:41:53.525Z,18.35
2022-10-20T07:44:20.765Z,18.84
2022-10-20T07:46:47.769Z,19.22
2022-10-20T07:52:01.659Z,19.00
2022-10-20T07:54:28.592Z,19.15
2022-10-20T07:56:55.526Z,19.08
2022-10-20T07:59:22.567Z,18.64
2022-10-20T08:01:49.557Z,18.89
2022-10-20T08:04:16.609Z,18.58
2022-10-20T08:06:43.513Z,18.43
2022-10-20T08:09:10.573Z,17.70
2022-10-20T08:11:37.505Z,17.64
2022-10-20T08:14:05.024Z,17.28
2022-10-20T08:16:37.277Z,17.02
2022-10-20T08:21:47.983Z,16.46
2022-10-20T08:24:14.936Z,16.36
2022-10-20T08:26:42.025Z,15.95
2022-10-20T08:29:09.964Z,15.88
2022-10-20T08:31:36.897Z,15.28
2022-10-20T08:34:03.913Z,15.76
2022-10-20T08:36:31.074Z,15.91
2022-10-20T08:39:03.614Z,15.95
2022-10-20T08:44:35.209Z,15.36
2022-10-20T08:47:13.292Z,15.20
2022-10-20T08:49:40.354Z,15.36
2022-10-20T08:52:14.962Z,14.63
2022-10-20T08:54:42.217Z,14.60
2022-10-20T08:57:33.331Z,14.58
2022-10-20T09:00:22.527Z,14.86
2022-10-20T09:02:50.804Z,14.86
2022-10-20T09:05:32.000Z,15.01
2022-10-20T09:07:59.071Z,14.40
2022-10-20T09:10:44.634Z,14.42
2022-10-20T09:13:28.102Z,14.99
2022-10-20T09:16:41.957Z,15.27
2022-10-20T09:19:23.389Z,16.34
2022-10-20T09:21:54.850Z,17.42
2022-10-20T09:24:24.374Z,17.96
2022-10-20T09:26:59.243Z,18.22
2022-10-20T09:29:38.909Z,18.95
2022-10-20T09:35:30.244Z,19.02
2022-10-20T09:37:59.265Z,19.39
2022-10-20T09:40:27.874Z,19.59
2022-10-20T09:43:02.288Z,19.94
2022-10-20T09:45:32.539Z,19.99
2022-10-20T09:48:15.254Z,19.72
2022-10-20T09:50:51.409Z,19.51
2022-10-20T09:53:23.987Z,18.98
2022-10-20T09:55:52.247Z,18.73
2022-10-20T09:58:31.070Z,19.40
2022-10-20T10:01:17.330Z,20.19
2022-10-20T10:03:48.155Z,19.95
2022-10-20T10:06:38.876Z,19.96
2022-10-20T10:09:35.235Z,19.21
2022-10-20T10:12:10.869Z,18.58
2022-10-20T10:14:39.101Z,18.38
2022-10-20T10:17:06.061Z,18.65
2022-10-20T10:19:34.380Z,18.07
2022-10-20T10:22:03.640Z,18.21
2022-10-20T10:24:46.556Z,18.91
2022-10-20T10:27:25.547Z,19.08
2022-10-20T10:29:54.420Z,19.68
2022-10-20T10:32:29.485Z,19.65
2022-10-20T10:35:29.261Z,19.59
2022-10-20T10:37:58.185Z,20.07
2022-10-20T10:41:09.944Z,20.60
2022-10-20T10:44:28.528Z,20.06
2022-10-20T10:47:15.892Z,19.84
2022-10-20T10:50:19.252Z,20.00
2022-10-20T10:53:20.655Z,19.82
2022-10-20T10:56:27.955Z,19.51
2022-10-20T10:59:12.553Z,19.72
2022-10-20T11:01:52.414Z,18.94
2022-10-20T11:05:06.068Z,18.39
2022-10-20T11:07:53.740Z,17.63
2022-10-20T11:10:29.214Z,16.86
2022-10-20T11:13:44.872Z,16.63
2022-10-20T11:16:44.174Z,16.62
2022-10-20T11:19:47.298Z,16.31
2022-10-20T11:22:29.088Z,16.23
2022-10-20T11:25:31.529Z,16.17
2022-10-20T11:27:59.146Z,15.30
2022-10-20T11:30:27.515Z,15.52
2022-10-20T11:33:19.161Z,15.39
2022-10-20T11:35:53.303Z,15.52
2022-10-20T11:38:56.239Z,15.70
2022-10-20T11:41:44.613Z,15.93
2022-10-20T11:44:24.373Z,15.88
2022-10-20T11:47:03.577Z,15.86
2022-10-20T11:49:33.782Z,15.54
2022-10-20T11:52:47.022Z,15.70
2022-10-20T11:55:48.564Z,16.00
2022-10-20T11:58:46.033Z,16.24
2022-10-20T12:01:50.189Z,16.33
2022-10-20T12:05:09.902Z,15.74
2022-10-20T12:08:28.179Z,15.37
2022-10-20T12:11:17.973Z,15.08
2022-10-20T12:14:14.879Z,14.76
2022-10-20T12:16:54.110Z,14.69
2022-10-20T12:19:22.506Z,15.01
2022-10-20T12:22:14.902Z,15.02
2022-10-20T12:25:01.704Z,14.93
2022-10-20T12:27:28.984Z,14.74
2022-10-20T12:30:02.591Z,14.97
2022-10-20T12:32:29.423Z,14.61
2022-10-20T12:35:21.354Z,14.74
2022-10-20T12:38:04.269Z,14.62
2022-10-20T12:40:55.463Z,14.65
2022-10-20T12:43:33.533Z,14.98
2022-10-20T12:46:31.451Z,14.77
2022-10-20T12:49:06.687Z,14.80
2022-10-20T12:51:53.039Z,14.63
2022-10-20T12:54:48.703Z,14.97
2022-10-20T12:57:41.698Z,14.94
2022-10-20T13:00:28.870Z,14.89
2022-10-20T13:02:58.727Z,14.84
2022-10-20T13:05:42.549Z,14.99
2022-10-20T13:08:21.158Z,15.14
2022-10-20T13:10:49.408Z,14.78
2022-10-20T13:13:19.269Z,14.56
2022-10-20T13:15:47.469Z,14.29
2022-10-20T13:18:20.369Z,14.11
2022-10-20T13:20:53.803Z,13.91
2022-10-20T13:23:37.456Z,13.58
2022-10-20T13:26:36.305Z,13.40
2022-10-20T13:29:17.121Z,13.38
2022-10-20T13:32:31.926Z,13.36
2022-10-20T13:35:08.028Z,13.06
2022-10-20T13:37:46.771Z,13.09
2022-10-20T13:40:31.086Z,12.87
2022-10-20T13:43:15.929Z,12.98
2022-10-20T13:45:56.939Z,12.95
2022-10-20T13:49:20.654Z,12.90
2022-10-20T13:51:56.961Z,13.10
2022-10-20T13:54:31.554Z,12.91
2022-10-20T13:56:58.967Z,13.02
2022-10-20T13:59:29.077Z,12.85
2022-10-20T14:02:31.410Z,12.86
2022-10-20T14:05:12.933Z,12.95
2022-10-20T14:07:42.924Z,12.92
2022-10-20T14:10:52.463Z,12.88
2022-10-20T14:13:24.651Z,12.75
2022-10-20T14:15:56.539Z,12.70
2022-10-20T14:18:39.136Z,12.65
2022-10-20T14:21:17.607Z,12.47
2022-10-20T14:23:47.005Z,12.41
2022-10-20T14:26:18.990Z,12.53
2022-10-20T14:28:48.694Z,12.50
2022-10-20T14:31:16.235Z,12.36
2022-10-20T14:33:46.102Z,12.32
2022-10-20T14:36:28.944Z,12.17
2022-10-20T14:39:01.210Z,12.18
2022-10-20T14:41:35.099Z,12.26
2022-10-20T14:44:12.187Z,12.14
2022-10-20T14:46:47.839Z,12.02
2022-10-20T14:49:19.294Z,11.97
2022-10-20T14:52:00.263Z,12.01
2022-10-20T14:54:39.519Z,11.76
2022-10-20T14:57:09.211Z,11.86
2022-10-20T15:00:04.597Z,11.46
2022-10-20T15:02:42.653Z,11.57
2022-10-20T15:05:42.399Z,11.51
2022-10-20T15:08:18.397Z,11.53
2022-10-20T15:10:46.051Z,11.58
2022-10-20T15:13:31.534Z,11.66
2022-10-20T15:16:04.521Z,11.49
2022-10-20T15:18:33.452Z,11.56
2022-10-20T15:21:02.305Z,11.42
2022-10-20T15:23:29.727Z,11.52
2022-10-20T15:26:10.500Z,11.56
2022-10-20T15:28:45.576Z,11.43
2022-10-20T15:31:26.766Z,11.39
2022-10-20T15:33:55.707Z,11.33
2022-10-20T15:36:33.881Z,11.39
2022-10-20T15:39:01.968Z,11.20
2022-10-20T15:41:33.437Z,11.20
2022-10-20T15:44:15.452Z,11.24
2022-10-20T15:46:44.875Z,11.18
2022-10-20T15:49:12.987Z,11.18
2022-10-20T15:51:44.248Z,11.09
2022-10-20T15:54:21.153Z,11.06
2022-10-20T15:56:48.476Z,11.02
2022-10-20T15:59:15.414Z,11.17
2022-10-20T16:01:42.397Z,11.06
2022-10-20T16:04:31.346Z,10.98
2022-10-20T16:07:02.578Z,11.06
2022-10-20T16:09:30.339Z,11.12
2022-10-20T16:11:57.268Z,11.30
2022-10-20T16:14:24.242Z,11.32
2022-10-20T16:16:51.298Z,11.21
2022-10-20T16:19:18.203Z,11.09
2022-10-20T16:21:45.137Z,11.06
2022-10-20T16:24:12.058Z,11.02
2022-10-20T16:26:39.018Z,11.19
2022-10-20T16:29:05.939Z,11.04
2022-10-20T16:31:32.909Z,11.02
2022-10-20T16:34:00.495Z,11.09
2022-10-20T16:36:27.633Z,10.94
2022-10-20T16:38:56.862Z,11.15
2022-10-20T16:41:24.024Z,10.89
2022-10-20T16:43:50.997Z,10.96
2022-10-20T16:46:18.214Z,10.96
2022-10-20T16:48:48.034Z,10.80
2022-10-20T16:51:16.068Z,10.93
2022-10-20T16:53:43.232Z,11.06
2022-10-20T16:56:10.718Z,11.01
2022-10-20T16:58:37.653Z,10.78
2022-10-20T17:01:08.788Z,10.73
2022-10-20T17:06:19.270Z,10.83
2022-10-20T17:08:47.115Z,10.64
2022-10-20T17:11:21.683Z,10.76
2022-10-20T17:13:49.060Z,10.76
2022-10-20T17:16:30.061Z,10.82
2022-10-20T17:18:59.185Z,10.66
2022-10-20T17:21:28.154Z,10.74
2022-10-20T17:23:55.230Z,10.98
2022-10-20T17:26:25.003Z,10.83
2022-10-20T17:29:03.059Z,10.65
2022-10-20T17:31:30.460Z,10.53
2022-10-20T17:33:59.223Z,10.60
2022-10-20T17:36:28.500Z,10.63
2022-10-20T17:39:02.535Z,10.54
2022-10-20T17:41:30.302Z,10.60
2022-10-20T17:44:04.111Z,10.71
2022-10-20T17:46:31.963Z,10.55
2022-10-20T17:49:01.551Z,10.42
2022-10-20T17:51:31.921Z,10.39
2022-10-20T17:54:01.696Z,10.21
2022-10-20T17:56:32.036Z,10.34
2022-10-20T17:59:00.636Z,10.43
2022-10-20T18:01:34.575Z,10.32
2022-10-20T18:04:09.836Z,10.39
2022-10-20T18:06:38.141Z,10.23
2022-10-20T18:09:11.050Z,10.22
2022-10-20T18:11:40.950Z,10.16
2022-10-20T18:14:07.915Z,10.10
2022-10-20T18:16:37.996Z,10.01
2022-10-20T18:19:06.133Z,9.96
2022-10-20T18:21:33.892Z,9.92
2022-10-20T18:24:05.042Z,9.79
2022-10-20T18:26:35.308Z,9.86
2022-10-20T18:29:06.017Z,9.63
2022-10-20T18:31:35.061Z,9.42
2022-10-20T18:34:07.128Z,9.44
2022-10-20T18:36:39.134Z,9.37
2022-10-20T18:39:10.055Z,9.38
2022-10-20T18:41:40.551Z,9.34
2022-10-20T18:44:14.037Z,9.28
2022-10-20T18:46:42.533Z,9.20
2022-10-20T18:49:12.726Z,9.16
2022-10-20T18:51:40.536Z,9.21
2022-10-20T18:54:09.182Z,9.08
2022-10-20T18:56:36.555Z,9.05
2022-10-20T18:59:08.999Z,9.02
2022-10-20T19:01:38.791Z,9.10
2022-10-20T19:04:07.530Z,8.85
2022-10-20T19:06:44.387Z,8.87
2022-10-20T19:09:15.716Z,9.01
2022-10-20T19:11:43.849Z,8.88
2022-10-20T19:14:11.695Z,8.79
2022-10-20T19:16:41.803Z,8.79
2022-10-20T19:19:09.669Z,8.61
2022-10-20T19:21:37.099Z,8.48
2022-10-20T19:24:30.276Z,8.65
2022-10-20T19:27:24.682Z,8.67
2022-10-20T19:29:45.044Z,8.58
2022-10-20T19:32:12.542Z,8.50
2022-10-20T19:34:41.098Z,8.57
2022-10-20T19:37:09.057Z,8.48
2022-10-20T19:39:40.023Z,8.42
2022-10-20T19:42:08.594Z,8.37
2022-10-20T19:44:36.334Z,8.34
2022-10-20T19:47:04.955Z,8.38
2022-10-20T19:49:32.110Z,8.38
2022-10-20T19:51:59.178Z,8.29
2022-10-20T19:54:26.231Z,8.32
2022-10-20T19:56:53.205Z,8.20
2022-10-20T19:59:20.414Z,8.08
2022-10-20T20:01:49.645Z,8.21
2022-10-20T20:04:16.619Z,8.06
2022-10-20T20:06:43.602Z,8.12
2022-10-20T20:09:12.103Z,8.16
2022-10-20T20:11:39.257Z,8.20
2022-10-20T20:14:18.410Z,8.00
2022-10-20T20:16:46.686Z,8.13
2022-10-20T20:19:16.457Z,8.05
2022-10-20T20:21:44.192Z,7.92
2022-10-20T20:24:12.826Z,7.82
2022-10-20T20:26:39.900Z,7.90
2022-10-20T20:29:06.885Z,7.83
2022-10-20T20:31:34.013Z,7.64
2022-10-20T20:34:01.591Z,7.63
2022-10-20T20:36:29.159Z,7.64
2022-10-20T20:38:58.342Z,7.63
2022-10-20T20:41:28.003Z,7.54
2022-10-20T20:43:55.296Z,7.45
2022-10-20T20:46:24.245Z,7.51
2022-10-20T20:48:51.725Z,7.42
2022-10-20T20:51:18.914Z,7.40
2022-10-20T20:53:45.857Z,7.41
2022-10-20T20:56:15.729Z,7.26
2022-10-20T20:58:49.018Z,7.40
2022-10-20T21:01:22.066Z,7.29
2022-10-20T21:03:57.895Z,7.18
2022-10-20T21:06:33.690Z,7.12
2022-10-20T21:09:01.469Z,7.14
2022-10-20T21:11:28.595Z,7.03
2022-10-20T21:13:57.549Z,7.06
2022-10-20T21:16:26.272Z,6.94
2022-10-20T21:18:57.215Z,6.93
2022-10-20T21:21:28.113Z,7.00
2022-10-20T21:23:56.899Z,7.09
2022-10-20T21:26:24.267Z,6.97
2022-10-20T21:28:51.541Z,6.95
2022-10-20T21:31:22.163Z,6.99
2022-10-20T21:34:05.675Z,6.89
2022-10-20T21:36:37.857Z,6.89
2022-10-20T21:39:07.749Z,6.88
2022-10-20T21:41:35.934Z,6.88
2022-10-20T21:44:06.530Z,6.77
2022-10-20T21:46:36.991Z,6.85
2022-10-20T21:49:07.816Z,6.80
2022-10-20T21:51:38.617Z,6.94
2022-10-20T21:54:10.181Z,6.89
2022-10-20T21:56:41.200Z,6.79
2022-10-20T21:59:15.568Z,6.73
2022-10-20T22:01:42.506Z,6.73
2022-10-20T22:04:09.447Z,6.75
2022-10-20T22:06:38.449Z,6.71
2022-10-20T22:09:06.764Z,6.63
2022-10-20T22:11:40.964Z,6.83
2022-10-20T22:14:07.979Z,6.86
2022-10-20T22:16:39.144Z,6.78
2022-10-20T22:19:13.083Z,6.67
2022-10-20T22:21:43.667Z,6.72
2022-10-20T22:24:10.799Z,6.60
2022-10-20T22:26:38.666Z,6.56
2022-10-20T22:29:09.566Z,6.54
2022-10-20T22:31:38.821Z,6.42
2022-10-20T22:34:06.809Z,6.60
2022-10-20T22:36:33.861Z,6.42
2022-10-20T22:39:00.932Z,6.47
2022-10-20T22:41:28.047Z,6.45
2022-10-20T22:43:54.963Z,6.48
2022-10-20T22:46:21.889Z,6.46
2022-10-20T22:48:48.979Z,6.45
2022-10-20T22:51:16.560Z,6.41
2022-10-20T22:53:43.857Z,6.30
2022-10-20T22:56:14.891Z,6.40
2022-10-20T22:58:42.506Z,6.23
2022-10-20T23:01:19.238Z,6.40
2022-10-20T23:03:47.356Z,6.37
2022-10-20T23:06:24.651Z,6.33
2022-10-20T23:08:55.013Z,6.29
2022-10-20T23:11:22.131Z,6.15
2022-10-20T23:13:51.029Z,6.15
2022-10-20T23:16:18.959Z,6.04
2022-10-20T23:18:46.342Z,6.00
2022-10-20T23:21:14.215Z,5.99
2022-10-20T23:23:41.531Z,6.00
2022-10-20T23:26:09.798Z,5.93
2022-10-20T23:28:37.922Z,5.89
2022-10-20T23:31:20.702Z,5.91
2022-10-20T23:33:50.065Z,5.88
2022-10-20T23:36:17.596Z,5.90
2022-10-20T23:38:46.289Z,5.89
2022-10-20T23:41:13.635Z,5.86
2022-10-20T23:43:40.851Z,5.74
2022-10-20T23:46:08.708Z,5.75
2022-10-20T23:48:35.905Z,5.77
2022-10-20T23:51:02.911Z,5.72
2022-10-20T23:53:30.456Z,5.81
2022-10-20T23:55:57.395Z,5.74
2022-10-20T23:58:24.424Z,5.75
